createdAt,value
2018-02-08T00:00:24.559Z,67.74
2018-02-08T00:00:50.682Z,68.3
2018-02-08T00:01:16.740Z,67.74
2018-02-08T00:01:42.843Z,67.83
2018-02-08T00:02:08.956Z,67.83
2018-02-08T00:02:35.054Z,67.93
2018-02-08T00:03:01.176Z,68.59
2018-02-08T00:03:27.340Z,68.4
2018-02-08T00:03:53.425Z,68.4
2018-02-08T00:04:19.596Z,68.4
2018-02-08T00:04:45.747Z,68.4
2018-02-08T00:05:12.066Z,68.49
2018-02-08T00:05:38.199Z,68.4
2018-02-08T00:06:04.325Z,68.49
2018-02-08T00:06:30.441Z,68.3
2018-02-08T00:06:56.577Z,68.49
2018-02-08T00:07:22.677Z,68.49
2018-02-08T00:07:48.801Z,68.49
2018-02-08T00:08:14.958Z,68.4
2018-02-08T00:08:41.064Z,68.59
2018-02-08T00:09:07.190Z,68.59
2018-02-08T00:09:33.298Z,67.93
2018-02-08T00:09:59.409Z,68.3
2018-02-08T00:10:25.532Z,68.4
2018-02-08T00:10:51.644Z,68.21
2018-02-08T00:11:17.754Z,68.4
2018-02-08T00:11:43.878Z,68.3
2018-02-08T00:12:09.972Z,68.3
2018-02-08T00:12:36.074Z,68.3
2018-02-08T00:13:02.168Z,68.3
2018-02-08T00:13:28.265Z,68.3
2018-02-08T00:13:54.370Z,68.4
2018-02-08T00:14:20.470Z,68.4
2018-02-08T00:14:46.560Z,68.3
2018-02-08T00:15:12.662Z,68.3
2018-02-08T00:15:38.762Z,68.12
2018-02-08T00:16:04.858Z,68.21
2018-02-08T00:16:30.965Z,68.59
2018-02-08T00:16:57.083Z,68.4
2018-02-08T00:17:23.172Z,68.12
2018-02-08T00:17:49.318Z,68.4
2018-02-08T00:18:15.424Z,68.77
2018-02-08T00:18:41.518Z,68.59
2018-02-08T00:19:07.618Z,69.34
2018-02-08T00:19:33.712Z,68.77
2018-02-08T00:19:59.830Z,68.68
2018-02-08T00:20:25.932Z,68.77
2018-02-08T00:20:52.026Z,68.68
2018-02-08T00:21:18.123Z,68.77
2018-02-08T00:21:44.229Z,68.68
2018-02-08T00:22:10.360Z,68.68
2018-02-08T00:22:36.446Z,68.77
2018-02-08T00:23:02.589Z,68.77
2018-02-08T00:23:28.667Z,68.87
2018-02-08T00:23:54.765Z,68.77
2018-02-08T00:24:20.863Z,68.87
2018-02-08T00:24:46.961Z,68.59
2018-02-08T00:25:13.084Z,68.68
2018-02-08T00:25:39.198Z,68.68
2018-02-08T00:26:05.299Z,68.96
2018-02-08T00:26:31.394Z,69.06
2018-02-08T00:26:57.498Z,68.96
2018-02-08T00:27:23.591Z,68.87
2018-02-08T00:27:49.687Z,69.06
2018-02-08T00:28:15.791Z,68.87
2018-02-08T00:28:41.891Z,69.34
2018-02-08T00:29:07.990Z,69.44
2018-02-08T00:29:34.090Z,69.06
2018-02-08T00:30:00.192Z,69.06
2018-02-08T00:30:26.287Z,69.44
2018-02-08T00:30:52.392Z,69.34
2018-02-08T00:31:18.499Z,69.63
2018-02-08T00:31:44.596Z,69.44
2018-02-08T00:32:10.729Z,68.77
2018-02-08T00:32:36.835Z,68.96
2018-02-08T00:33:02.929Z,68.77
2018-02-08T00:33:29.028Z,68.96
2018-02-08T00:33:55.127Z,68.96
2018-02-08T00:34:21.230Z,68.96
2018-02-08T00:34:47.323Z,69.15
2018-02-08T00:35:13.420Z,68.87
2018-02-08T00:35:39.520Z,69.44
2018-02-08T00:36:05.624Z,69.44
2018-02-08T00:36:31.720Z,68.96
2018-02-08T00:36:57.815Z,69.06
2018-02-08T00:37:23.916Z,69.63
2018-02-08T00:37:50.011Z,68.96
2018-02-08T00:38:16.119Z,69.06
2018-02-08T00:38:42.205Z,69.25
2018-02-08T00:39:08.322Z,69.06
2018-02-08T00:39:34.423Z,69.06
2018-02-08T00:40:00.516Z,69.15
2018-02-08T00:40:26.611Z,69.25
2018-02-08T00:40:52.712Z,69.06
2018-02-08T00:41:18.812Z,68.87
2018-02-08T00:41:44.907Z,68.96
2018-02-08T00:42:11.011Z,68.87
2018-02-08T00:42:37.112Z,69.15
2018-02-08T00:43:03.208Z,69.06
2018-02-08T00:43:29.326Z,68.87
2018-02-08T00:43:55.427Z,68.96
2018-02-08T00:44:21.553Z,69.25
2018-02-08T00:44:47.665Z,69.06
2018-02-08T00:45:13.767Z,69.15
2018-02-08T00:45:39.865Z,69.53
2018-02-08T00:46:05.960Z,69.53
2018-02-08T00:46:32.056Z,69.15
2018-02-08T00:46:58.150Z,69.53
2018-02-08T00:47:24.250Z,69.82
2018-02-08T00:47:50.344Z,69.82
2018-02-08T00:48:16.445Z,69.63
2018-02-08T00:48:42.542Z,69.63
2018-02-08T00:49:08.644Z,69.63
2018-02-08T00:49:34.743Z,70.01
2018-02-08T00:50:00.852Z,69.53
2018-02-08T00:50:26.955Z,69.25
2018-02-08T00:50:53.064Z,69.53
2018-02-08T00:51:19.161Z,68.96
2018-02-08T00:51:45.253Z,69.44
2018-02-08T00:52:11.352Z,69.06
2018-02-08T00:52:37.457Z,69.15
2018-02-08T00:53:03.552Z,69.53
2018-02-08T00:53:29.653Z,69.44
2018-02-08T00:53:55.765Z,69.63
2018-02-08T00:54:21.864Z,70.01
2018-02-08T00:54:47.966Z,69.82
2018-02-08T00:55:14.066Z,69.63
2018-02-08T00:55:40.162Z,69.15
2018-02-08T00:56:06.259Z,69.06
2018-02-08T00:56:32.365Z,69.15
2018-02-08T00:56:58.455Z,69.25
2018-02-08T00:57:24.560Z,69.06
2018-02-08T00:57:50.654Z,69.25
2018-02-08T00:58:16.756Z,69.15
2018-02-08T00:58:42.856Z,69.06
2018-02-08T00:59:08.980Z,69.63
2018-02-08T00:59:35.084Z,69.63
2018-02-08T01:00:01.181Z,69.53
2018-02-08T01:00:27.277Z,69.63
2018-02-08T01:00:53.380Z,70.1
2018-02-08T01:01:19.478Z,70.01
2018-02-08T01:01:45.576Z,69.34
2018-02-08T01:02:11.687Z,70.01
2018-02-08T01:02:37.788Z,69.72
2018-02-08T01:03:03.914Z,69.63
2018-02-08T01:03:30.007Z,69.72
2018-02-08T01:03:56.102Z,69.82
2018-02-08T01:04:22.203Z,69.82
2018-02-08T01:04:48.307Z,69.63
2018-02-08T01:05:14.413Z,70.01
2018-02-08T01:05:40.517Z,70.1
2018-02-08T01:06:06.622Z,69.91
2018-02-08T01:06:32.716Z,69.91
2018-02-08T01:06:58.818Z,69.63
2018-02-08T01:07:24.937Z,69.72
2018-02-08T01:07:51.048Z,69.53
2018-02-08T01:08:17.160Z,69.53
2018-02-08T01:08:43.261Z,69.63
2018-02-08T01:09:09.358Z,69.44
2018-02-08T01:09:35.458Z,69.91
2018-02-08T01:10:01.560Z,69.72
2018-02-08T01:10:27.675Z,69.82
2018-02-08T01:10:53.772Z,70.1
2018-02-08T01:11:19.868Z,69.72
2018-02-08T01:11:45.965Z,70.2
2018-02-08T01:12:12.067Z,70.1
2018-02-08T01:12:38.168Z,70.01
2018-02-08T01:13:04.267Z,70.01
2018-02-08T01:13:30.367Z,70.2
2018-02-08T01:13:56.470Z,69.72
2018-02-08T01:14:22.578Z,70.1
2018-02-08T01:14:48.679Z,70.01
2018-02-08T01:15:14.779Z,69.82
2018-02-08T01:15:40.877Z,69.82
2018-02-08T01:16:06.976Z,70.2
2018-02-08T01:16:33.069Z,70.1
2018-02-08T01:16:59.170Z,70.48
2018-02-08T01:17:25.263Z,69.91
2018-02-08T01:17:51.366Z,69.72
2018-02-08T01:18:17.479Z,69.91
2018-02-08T01:18:43.582Z,70.2
2018-02-08T01:19:09.676Z,70.29
2018-02-08T01:19:35.773Z,69.44
2018-02-08T01:20:01.872Z,69.82
2018-02-08T01:20:27.968Z,69.82
2018-02-08T01:20:54.071Z,69.72
2018-02-08T01:21:20.172Z,70.1
2018-02-08T01:21:46.268Z,69.82
2018-02-08T01:22:12.367Z,69.82
2018-02-08T01:22:38.468Z,69.53
2018-02-08T01:23:04.578Z,70.01
2018-02-08T01:23:30.677Z,69.72
2018-02-08T01:23:56.797Z,70.1
2018-02-08T01:24:22.890Z,69.87
2018-02-08T01:24:48.995Z,70.1
2018-02-08T01:25:15.103Z,70.29
2018-02-08T01:25:41.202Z,70.1
2018-02-08T01:26:07.304Z,70.67
2018-02-08T01:26:33.401Z,70.76
2018-02-08T01:26:59.503Z,70.86
2018-02-08T01:27:25.608Z,70.76
2018-02-08T01:27:51.705Z,70.63
2018-02-08T01:28:17.800Z,70.44
2018-02-08T01:28:43.903Z,70.39
2018-02-08T01:29:09.998Z,70.76
2018-02-08T01:29:36.100Z,70.57
2018-02-08T01:30:02.194Z,70.39
2018-02-08T01:30:28.300Z,70.29
2018-02-08T01:30:54.394Z,70.48
2018-02-08T01:31:20.494Z,70.57
2018-02-08T01:31:46.588Z,70.54
2018-02-08T01:32:12.686Z,70.54
2018-02-08T01:32:38.795Z,70.48
2018-02-08T01:33:04.897Z,70.29
2018-02-08T01:33:31.008Z,70.67
2018-02-08T01:33:57.108Z,70.39
2018-02-08T01:34:23.209Z,70.67
2018-02-08T01:34:49.305Z,70.57
2018-02-08T01:35:15.396Z,70.39
2018-02-08T01:35:41.503Z,70.76
2018-02-08T01:36:07.603Z,70.82
2018-02-08T01:36:33.706Z,70.67
2018-02-08T01:36:59.819Z,70.76
2018-02-08T01:37:25.951Z,70.76
2018-02-08T01:37:52.051Z,70.67
2018-02-08T01:38:18.142Z,70.73
2018-02-08T01:38:44.267Z,70.29
2018-02-08T01:39:10.336Z,70.86
2018-02-08T01:39:36.432Z,70.86
2018-02-08T01:40:02.557Z,71.01
2018-02-08T01:40:28.654Z,70.73
2018-02-08T01:40:54.748Z,71.11
2018-02-08T01:41:20.845Z,71.48
2018-02-08T01:41:46.949Z,71.48
2018-02-08T01:42:13.044Z,71.3
2018-02-08T01:42:39.147Z,71.3
2018-02-08T01:43:05.250Z,71.58
2018-02-08T01:43:31.345Z,71.48
2018-02-08T01:43:57.446Z,70.73
2018-02-08T01:44:23.543Z,71.67
2018-02-08T01:44:49.641Z,71.48
2018-02-08T01:45:15.750Z,71.3
2018-02-08T01:45:41.845Z,71.01
2018-02-08T01:46:07.950Z,70.82
2018-02-08T01:46:34.079Z,71.01
2018-02-08T01:47:00.181Z,71.48
2018-02-08T01:47:26.283Z,71.3
2018-02-08T01:47:52.393Z,71.39
2018-02-08T01:48:18.487Z,71.67
2018-02-08T01:48:44.581Z,71.58
2018-02-08T01:49:10.676Z,71.48
2018-02-08T01:49:36.780Z,71.77
2018-02-08T01:50:02.871Z,70.95
2018-02-08T01:50:28.975Z,71.2
2018-02-08T01:50:55.075Z,71.2
2018-02-08T01:51:21.166Z,71.3
2018-02-08T01:51:47.287Z,71.2
2018-02-08T01:52:13.403Z,71.11
2018-02-08T01:52:39.504Z,71.42
2018-02-08T01:53:05.602Z,70.86
2018-02-08T01:53:31.698Z,71.01
2018-02-08T01:53:57.802Z,71.04
2018-02-08T01:54:23.907Z,71.04
2018-02-08T01:54:50.199Z,70.86
2018-02-08T01:55:16.298Z,71.42
2018-02-08T01:55:42.399Z,70.95
2018-02-08T01:56:08.531Z,70.86
2018-02-08T01:56:34.630Z,70.95
2018-02-08T01:57:00.722Z,70.29
2018-02-08T01:57:26.821Z,70.95
2018-02-08T01:57:52.924Z,70.67
2018-02-08T01:58:19.025Z,70.86
2018-02-08T01:58:45.126Z,70.67
2018-02-08T01:59:11.225Z,70.67
2018-02-08T01:59:37.320Z,70.29
2018-02-08T02:00:03.424Z,70.95
2018-02-08T02:00:29.537Z,70.76
2018-02-08T02:00:55.641Z,70.57
2018-02-08T02:01:21.742Z,70.63
2018-02-08T02:01:47.843Z,70.54
2018-02-08T02:02:13.943Z,70.54
2018-02-08T02:02:40.059Z,70.44
2018-02-08T02:03:06.137Z,70.67
2018-02-08T02:03:32.244Z,70.76
2018-02-08T02:03:58.340Z,70.57
2018-02-08T02:04:24.445Z,70.25
2018-02-08T02:04:50.543Z,70.86
2018-02-08T02:05:16.661Z,71.01
2018-02-08T02:05:42.762Z,70.54
2018-02-08T02:06:08.858Z,70.67
2018-02-08T02:06:34.975Z,70.67
2018-02-08T02:07:01.072Z,70.67
2018-02-08T02:07:27.173Z,70.86
2018-02-08T02:07:53.296Z,70.95
2018-02-08T02:08:19.397Z,70.67
2018-02-08T02:08:45.491Z,70.29
2018-02-08T02:09:11.596Z,71.04
2018-02-08T02:09:37.710Z,70.86
2018-02-08T02:10:03.807Z,71.04
2018-02-08T02:10:29.911Z,70.95
2018-02-08T02:10:56.007Z,70.76
2018-02-08T02:11:22.117Z,70.67
2018-02-08T02:11:48.220Z,70.86
2018-02-08T02:12:14.320Z,70.86
2018-02-08T02:12:40.425Z,70.76
2018-02-08T02:13:06.527Z,70.67
2018-02-08T02:13:32.620Z,70.76
2018-02-08T02:13:58.719Z,70.48
2018-02-08T02:14:24.815Z,70.39
2018-02-08T02:14:50.920Z,70.57
2018-02-08T02:15:17.023Z,70.76
2018-02-08T02:15:43.117Z,70.86
2018-02-08T02:16:09.219Z,70.86
2018-02-08T02:16:35.318Z,70.67
2018-02-08T02:17:01.409Z,70.86
2018-02-08T02:17:27.511Z,70.39
2018-02-08T02:17:53.615Z,70.57
2018-02-08T02:18:19.717Z,69.97
2018-02-08T02:18:45.822Z,70.44
2018-02-08T02:19:11.912Z,70.06
2018-02-08T02:19:38.015Z,70.63
2018-02-08T02:20:04.112Z,70.82
2018-02-08T02:20:30.215Z,70.73
2018-02-08T02:20:56.315Z,70.73
2018-02-08T02:21:22.418Z,70.35
2018-02-08T02:21:48.514Z,70.44
2018-02-08T02:22:14.618Z,70.63
2018-02-08T02:22:40.713Z,70.82
2018-02-08T02:23:06.834Z,71.11
2018-02-08T02:23:32.947Z,71.11
2018-02-08T02:23:59.061Z,71.01
2018-02-08T02:24:25.166Z,71.3
2018-02-08T02:24:51.268Z,71.3
2018-02-08T02:25:17.384Z,71.11
2018-02-08T02:25:43.461Z,71.42
2018-02-08T02:26:09.561Z,70.86
2018-02-08T02:26:35.677Z,70.82
2018-02-08T02:27:01.781Z,71.01
2018-02-08T02:27:27.880Z,71.2
2018-02-08T02:27:53.974Z,70.92
2018-02-08T02:28:20.075Z,71.39
2018-02-08T02:28:46.174Z,71.01
2018-02-08T02:29:12.273Z,71.3
2018-02-08T02:29:38.369Z,70.73
2018-02-08T02:30:04.485Z,71.39
2018-02-08T02:30:30.582Z,71.01
2018-02-08T02:30:56.690Z,71.33
2018-02-08T02:31:22.786Z,70.82
2018-02-08T02:31:48.885Z,70.82
2018-02-08T02:32:14.994Z,71.48
2018-02-08T02:32:41.090Z,71.3
2018-02-08T02:33:07.190Z,71.11
2018-02-08T02:33:33.291Z,71.11
2018-02-08T02:33:59.393Z,71.3
2018-02-08T02:34:25.491Z,71.11
2018-02-08T02:34:51.586Z,71.39
2018-02-08T02:35:17.683Z,71.01
2018-02-08T02:35:43.812Z,71.39
2018-02-08T02:36:09.908Z,71.2
2018-02-08T02:36:36.006Z,70.92
2018-02-08T02:37:02.107Z,71.3
2018-02-08T02:37:28.205Z,71.48
2018-02-08T02:37:54.313Z,71.11
2018-02-08T02:38:20.407Z,71.2
2018-02-08T02:38:46.527Z,70.54
2018-02-08T02:39:12.632Z,70.63
2018-02-08T02:39:38.729Z,71.39
2018-02-08T02:40:04.828Z,71.58
2018-02-08T02:40:30.928Z,71.67
2018-02-08T02:40:57.039Z,71.48
2018-02-08T02:41:23.144Z,71.48
2018-02-08T02:41:49.241Z,70.82
2018-02-08T02:42:15.339Z,71.48
2018-02-08T02:42:41.433Z,71.48
2018-02-08T02:43:07.531Z,71.2
2018-02-08T02:43:33.637Z,71.39
2018-02-08T02:43:59.795Z,71.67
2018-02-08T02:44:25.839Z,71.77
2018-02-08T02:44:51.929Z,71.11
2018-02-08T02:45:18.032Z,71.2
2018-02-08T02:45:44.138Z,71.39
2018-02-08T02:46:10.245Z,71.01
2018-02-08T02:46:36.366Z,71.3
2018-02-08T02:47:02.464Z,70.92
2018-02-08T02:47:28.558Z,71.01
2018-02-08T02:47:54.660Z,71.01
2018-02-08T02:48:20.768Z,71.2
2018-02-08T02:48:46.859Z,70.73
2018-02-08T02:49:12.959Z,71.2
2018-02-08T02:49:39.061Z,71.11
2018-02-08T02:50:05.173Z,71.3
2018-02-08T02:50:31.278Z,71.39
2018-02-08T02:50:57.380Z,71.3
2018-02-08T02:51:23.477Z,70.82
2018-02-08T02:51:49.578Z,70.82
2018-02-08T02:52:15.693Z,71.11
2018-02-08T02:52:41.794Z,70.82
2018-02-08T02:53:07.890Z,71.11
2018-02-08T02:53:33.994Z,70.48
2018-02-08T02:54:00.110Z,70.63
2018-02-08T02:54:26.212Z,70.54
2018-02-08T02:54:52.322Z,70.54
2018-02-08T02:55:18.422Z,70.86
2018-02-08T02:55:44.520Z,70.54
2018-02-08T02:56:10.613Z,70.67
2018-02-08T02:56:36.710Z,70.44
2018-02-08T02:57:02.809Z,70.63
2018-02-08T02:57:28.912Z,70.54
2018-02-08T02:57:55.013Z,70.63
2018-02-08T02:58:21.135Z,70.63
2018-02-08T02:58:47.240Z,70.63
2018-02-08T02:59:13.340Z,70.63
2018-02-08T02:59:39.451Z,70.54
2018-02-08T03:00:05.560Z,70.54
2018-02-08T03:00:31.660Z,70.73
2018-02-08T03:00:57.760Z,70.73
2018-02-08T03:01:23.877Z,71.11
2018-02-08T03:01:49.956Z,71.3
2018-02-08T03:02:16.050Z,70.92
2018-02-08T03:02:42.158Z,71.39
2018-02-08T03:03:08.254Z,71.2
2018-02-08T03:03:34.357Z,71.39
2018-02-08T03:04:00.450Z,71.3
2018-02-08T03:04:26.549Z,71.3
2018-02-08T03:04:52.648Z,71.11
2018-02-08T03:05:18.751Z,71.39
2018-02-08T03:05:44.867Z,71.48
2018-02-08T03:06:10.966Z,71.11
2018-02-08T03:06:37.065Z,71.01
2018-02-08T03:07:03.163Z,71.11
2018-02-08T03:07:29.267Z,71.11
2018-02-08T03:07:55.365Z,71.01
2018-02-08T03:08:21.459Z,71.3
2018-02-08T03:08:47.564Z,71.11
2018-02-08T03:09:13.658Z,71.2
2018-02-08T03:09:39.761Z,71.11
2018-02-08T03:10:05.863Z,71.3
2018-02-08T03:10:31.956Z,71.39
2018-02-08T03:10:58.060Z,71.48
2018-02-08T03:11:24.156Z,71.39
2018-02-08T03:11:50.291Z,71.11
2018-02-08T03:12:16.356Z,71.3
2018-02-08T03:12:42.456Z,71.48
2018-02-08T03:13:08.553Z,71.3
2018-02-08T03:13:34.665Z,71.3
2018-02-08T03:14:00.767Z,70.82
2018-02-08T03:14:26.863Z,71.3
2018-02-08T03:14:52.985Z,71.67
2018-02-08T03:15:19.084Z,71.58
2018-02-08T03:15:45.184Z,70.82
2018-02-08T03:16:11.307Z,71.58
2018-02-08T03:16:37.402Z,70.73
2018-02-08T03:17:03.498Z,71.77
2018-02-08T03:17:29.601Z,70.92
2018-02-08T03:17:55.705Z,71.39
2018-02-08T03:18:21.800Z,70.82
2018-02-08T03:18:47.901Z,71.3
2018-02-08T03:19:13.995Z,71.67
2018-02-08T03:19:40.095Z,71.77
2018-02-08T03:20:06.197Z,71.3
2018-02-08T03:20:32.299Z,71.39
2018-02-08T03:20:58.406Z,71.3
2018-02-08T03:21:24.525Z,71.2
2018-02-08T03:21:50.627Z,71.2
2018-02-08T03:22:16.720Z,71.11
2018-02-08T03:22:42.825Z,71.67
2018-02-08T03:23:08.926Z,70.73
2018-02-08T03:23:35.025Z,70.82
2018-02-08T03:24:01.139Z,71.2
2018-02-08T03:24:27.237Z,71.58
2018-02-08T03:24:53.331Z,71.39
2018-02-08T03:25:19.431Z,71.39
2018-02-08T03:25:45.537Z,71.58
2018-02-08T03:26:11.632Z,71.2
2018-02-08T03:26:37.736Z,71.48
2018-02-08T03:27:03.834Z,70.92
2018-02-08T03:27:29.930Z,71.2
2018-02-08T03:27:56.035Z,71.3
2018-02-08T03:28:22.148Z,70.92
2018-02-08T03:28:48.268Z,70.92
2018-02-08T03:29:14.371Z,71.48
2018-02-08T03:29:40.471Z,71.39
2018-02-08T03:30:06.576Z,70.82
2018-02-08T03:30:32.690Z,70.82
2018-02-08T03:30:58.796Z,71.3
2018-02-08T03:31:24.902Z,70.82
2018-02-08T03:31:51.007Z,71.48
2018-02-08T03:32:17.107Z,71.39
2018-02-08T03:32:43.199Z,71.01
2018-02-08T03:33:09.337Z,71.3
2018-02-08T03:33:35.432Z,70.73
2018-02-08T03:34:01.527Z,70.82
2018-02-08T03:34:27.630Z,71.67
2018-02-08T03:34:53.742Z,71.3
2018-02-08T03:35:19.841Z,71.2
2018-02-08T03:35:45.934Z,70.82
2018-02-08T03:36:12.051Z,70.82
2018-02-08T03:36:38.153Z,70.92
2018-02-08T03:37:04.258Z,70.63
2018-02-08T03:37:30.353Z,70.82
2018-02-08T03:37:56.451Z,71.01
2018-02-08T03:38:22.553Z,70.73
2018-02-08T03:38:48.648Z,70.82
2018-02-08T03:39:14.754Z,71.01
2018-02-08T03:39:40.851Z,71.48
2018-02-08T03:40:06.944Z,70.73
2018-02-08T03:40:33.047Z,70.63
2018-02-08T03:40:59.145Z,71.48
2018-02-08T03:41:25.244Z,70.92
2018-02-08T03:41:51.347Z,70.82
2018-02-08T03:42:17.443Z,70.82
2018-02-08T03:42:43.543Z,71.48
2018-02-08T03:43:09.647Z,71.48
2018-02-08T03:43:35.743Z,70.92
2018-02-08T03:44:01.858Z,70.92
2018-02-08T03:44:27.958Z,71.3
2018-02-08T03:44:54.053Z,71.48
2018-02-08T03:45:20.153Z,71.67
2018-02-08T03:45:46.253Z,71.48
2018-02-08T03:46:12.355Z,71.67
2018-02-08T03:46:38.456Z,71.58
2018-02-08T03:47:04.553Z,71.58
2018-02-08T03:47:30.647Z,71.58
2018-02-08T03:47:56.768Z,71.39
2018-02-08T03:48:22.871Z,71.48
2018-02-08T03:48:48.966Z,71.48
2018-02-08T03:49:15.077Z,71.11
2018-02-08T03:49:41.170Z,71.67
2018-02-08T03:50:07.269Z,71.48
2018-02-08T03:50:33.363Z,71.58
2018-02-08T03:50:59.485Z,71.11
2018-02-08T03:51:25.579Z,71.58
2018-02-08T03:51:51.683Z,71.67
2018-02-08T03:52:17.785Z,71.67
2018-02-08T03:52:43.895Z,71.67
2018-02-08T03:53:10.002Z,71.48
2018-02-08T03:53:36.096Z,71.58
2018-02-08T03:54:02.203Z,71.58
2018-02-08T03:54:28.292Z,71.39
2018-02-08T03:54:54.388Z,71.58
2018-02-08T03:55:20.484Z,71.48
2018-02-08T03:55:46.590Z,71.77
2018-02-08T03:56:12.690Z,71.39
2018-02-08T03:56:38.794Z,71.58
2018-02-08T03:57:04.890Z,71.39
2018-02-08T03:57:30.993Z,71.48
2018-02-08T03:57:57.087Z,71.11
2018-02-08T03:58:23.191Z,71.67
2018-02-08T03:58:49.288Z,71.77
2018-02-08T03:59:15.380Z,71.67
2018-02-08T03:59:41.484Z,71.48
2018-02-08T04:00:07.587Z,71.2
2018-02-08T04:00:33.689Z,71.11
2018-02-08T04:00:59.789Z,72.05
2018-02-08T04:01:25.891Z,71.58
2018-02-08T04:01:51.986Z,71.86
2018-02-08T04:02:18.089Z,71.95
2018-02-08T04:02:44.188Z,71.58
2018-02-08T04:03:10.289Z,71.77
2018-02-08T04:03:36.386Z,71.67
2018-02-08T04:04:02.488Z,71.67
2018-02-08T04:04:28.583Z,71.48
2018-02-08T04:04:54.683Z,71.67
2018-02-08T04:05:20.787Z,71.58
2018-02-08T04:05:46.903Z,71.67
2018-02-08T04:06:13.001Z,71.58
2018-02-08T04:06:39.099Z,71.77
2018-02-08T04:07:05.203Z,71.67
2018-02-08T04:07:31.298Z,71.77
2018-02-08T04:07:57.401Z,71.95
2018-02-08T04:08:23.501Z,71.95
2018-02-08T04:08:49.597Z,71.95
2018-02-08T04:09:15.720Z,71.86
2018-02-08T04:09:41.814Z,71.58
2018-02-08T04:10:07.913Z,71.67
2018-02-08T04:10:34.014Z,71.95
2018-02-08T04:11:00.113Z,72.05
2018-02-08T04:11:26.213Z,72.33
2018-02-08T04:11:52.308Z,72.52
2018-02-08T04:12:18.416Z,72.24
2018-02-08T04:12:44.516Z,72.33
2018-02-08T04:13:10.614Z,72.33
2018-02-08T04:13:36.713Z,72.43
2018-02-08T04:14:02.815Z,72.43
2018-02-08T04:14:28.919Z,72.05
2018-02-08T04:14:55.014Z,72.62
2018-02-08T04:15:21.117Z,72.52
2018-02-08T04:15:47.230Z,72.52
2018-02-08T04:16:13.327Z,72.43
2018-02-08T04:16:39.431Z,72.52
2018-02-08T04:17:05.531Z,72.62
2018-02-08T04:17:31.630Z,72.52
2018-02-08T04:17:57.735Z,72.62
2018-02-08T04:18:23.838Z,72.52
2018-02-08T04:18:49.938Z,72.14
2018-02-08T04:19:16.047Z,72.14
2018-02-08T04:19:42.160Z,72.33
2018-02-08T04:20:08.259Z,72.33
2018-02-08T04:20:34.363Z,72.43
2018-02-08T04:21:00.462Z,71.67
2018-02-08T04:21:26.559Z,71.58
2018-02-08T04:21:52.664Z,72.05
2018-02-08T04:22:18.760Z,72.52
2018-02-08T04:22:44.855Z,72.33
2018-02-08T04:23:10.967Z,72.24
2018-02-08T04:23:37.071Z,72.05
2018-02-08T04:24:03.167Z,72.62
2018-02-08T04:24:29.285Z,72.43
2018-02-08T04:24:55.400Z,72.52
2018-02-08T04:25:21.506Z,72.05
2018-02-08T04:25:47.620Z,72.71
2018-02-08T04:26:13.725Z,72.43
2018-02-08T04:26:39.842Z,72.52
2018-02-08T04:27:05.944Z,72.52
2018-02-08T04:27:32.055Z,72.33
2018-02-08T04:27:58.152Z,72.62
2018-02-08T04:28:24.255Z,72.33
2018-02-08T04:28:50.350Z,72.14
2018-02-08T04:29:16.447Z,72.14
2018-02-08T04:29:42.549Z,72.52
2018-02-08T04:30:08.651Z,72.43
2018-02-08T04:30:34.747Z,71.95
2018-02-08T04:31:00.844Z,72.33
2018-02-08T04:31:26.948Z,72.52
2018-02-08T04:31:53.039Z,72.33
2018-02-08T04:32:19.141Z,72.24
2018-02-08T04:32:45.241Z,72.14
2018-02-08T04:33:11.336Z,72.33
2018-02-08T04:33:37.458Z,72.14
2018-02-08T04:34:03.554Z,72.43
2018-02-08T04:34:29.652Z,72.52
2018-02-08T04:34:55.756Z,72.33
2018-02-08T04:35:21.854Z,72.14
2018-02-08T04:35:47.951Z,72.14
2018-02-08T04:36:14.054Z,72.05
2018-02-08T04:36:40.145Z,72.14
2018-02-08T04:37:06.248Z,72.24
2018-02-08T04:37:32.344Z,72.14
2018-02-08T04:37:58.471Z,72.33
2018-02-08T04:38:24.567Z,72.33
2018-02-08T04:38:50.654Z,72.33
2018-02-08T04:39:16.757Z,72.24
2018-02-08T04:39:42.856Z,72.24
2018-02-08T04:40:08.960Z,72.05
2018-02-08T04:40:35.058Z,72.62
2018-02-08T04:41:01.156Z,72.52
2018-02-08T04:41:27.256Z,72.33
2018-02-08T04:41:53.351Z,72.05
2018-02-08T04:42:19.449Z,72.05
2018-02-08T04:42:45.549Z,72.14
2018-02-08T04:43:11.644Z,72.24
2018-02-08T04:43:37.747Z,72.24
2018-02-08T04:44:03.847Z,72.33
2018-02-08T04:44:29.946Z,72.33
2018-02-08T04:44:56.052Z,72.52
2018-02-08T04:45:22.147Z,72.43
2018-02-08T04:45:48.245Z,72.43
2018-02-08T04:46:14.349Z,72.24
2018-02-08T04:46:40.461Z,72.24
2018-02-08T04:47:06.563Z,72.33
2018-02-08T04:47:32.661Z,72.43
2018-02-08T04:47:58.755Z,72.33
2018-02-08T04:48:24.859Z,72.24
2018-02-08T04:48:50.954Z,72.52
2018-02-08T04:49:17.058Z,72.43
2018-02-08T04:49:43.154Z,72.52
2018-02-08T04:50:09.258Z,72.43
2018-02-08T04:50:35.355Z,72.52
2018-02-08T04:51:01.464Z,72.62
2018-02-08T04:51:27.558Z,72.52
2018-02-08T04:51:53.655Z,72.52
2018-02-08T04:52:19.758Z,72.52
2018-02-08T04:52:45.856Z,72.52
2018-02-08T04:53:11.956Z,72.52
2018-02-08T04:53:38.056Z,72.14
2018-02-08T04:54:04.152Z,72.33
2018-02-08T04:54:30.254Z,72.33
2018-02-08T04:54:56.353Z,72.33
2018-02-08T04:55:22.448Z,72.52
2018-02-08T04:55:48.551Z,72.14
2018-02-08T04:56:14.662Z,72.33
2018-02-08T04:56:40.764Z,72.24
2018-02-08T04:57:06.868Z,72.43
2018-02-08T04:57:32.959Z,72.71
2018-02-08T04:57:59.061Z,72.52
2018-02-08T04:58:25.156Z,72.39
2018-02-08T04:58:51.256Z,72.52
2018-02-08T04:59:17.372Z,72.99
2018-02-08T04:59:43.480Z,73.37
2018-02-08T05:00:09.578Z,73.09
2018-02-08T05:00:35.674Z,72.8
2018-02-08T05:01:01.771Z,73.05
2018-02-08T05:01:27.872Z,72.77
2018-02-08T05:01:53.966Z,72.8
2018-02-08T05:02:20.065Z,72.9
2018-02-08T05:02:46.165Z,73.09
2018-02-08T05:03:12.262Z,72.99
2018-02-08T05:03:38.364Z,73.28
2018-02-08T05:04:04.470Z,73.18
2018-02-08T05:04:30.574Z,73.09
2018-02-08T05:04:56.671Z,73.28
2018-02-08T05:05:22.778Z,73.28
2018-02-08T05:05:48.878Z,73.37
2018-02-08T05:06:14.972Z,73.18
2018-02-08T05:06:41.063Z,73.18
2018-02-08T05:07:07.163Z,73.18
2018-02-08T05:07:33.268Z,73.09
2018-02-08T05:07:59.364Z,73.18
2018-02-08T05:08:25.461Z,72.99
2018-02-08T05:08:51.576Z,73.37
2018-02-08T05:09:17.686Z,73.18
2018-02-08T05:09:43.807Z,73.09
2018-02-08T05:10:09.912Z,73.28
2018-02-08T05:10:36.023Z,73.28
2018-02-08T05:11:02.162Z,73.37
2018-02-08T05:11:28.258Z,73.37
2018-02-08T05:11:54.361Z,72.24
2018-02-08T05:12:20.455Z,72.52
2018-02-08T05:12:46.559Z,72.62
2018-02-08T05:13:12.653Z,72.62
2018-02-08T05:13:38.759Z,72.43
2018-02-08T05:14:04.852Z,72.33
2018-02-08T05:14:30.951Z,72.52
2018-02-08T05:14:57.054Z,72.62
2018-02-08T05:15:23.148Z,72.52
2018-02-08T05:15:49.251Z,72.52
2018-02-08T05:16:15.350Z,72.62
2018-02-08T05:16:41.470Z,72.33
2018-02-08T05:17:07.569Z,72.62
2018-02-08T05:17:33.661Z,72.33
2018-02-08T05:17:59.762Z,72.05
2018-02-08T05:18:25.865Z,72.43
2018-02-08T05:18:51.969Z,73.33
2018-02-08T05:19:18.062Z,73.18
2018-02-08T05:19:44.171Z,72.9
2018-02-08T05:20:10.263Z,72.99
2018-02-08T05:20:36.361Z,73.09
2018-02-08T05:21:02.460Z,73.66
2018-02-08T05:21:28.566Z,73.56
2018-02-08T05:21:54.681Z,73.56
2018-02-08T05:22:20.771Z,73.56
2018-02-08T05:22:46.889Z,73.75
2018-02-08T05:23:12.988Z,73.18
2018-02-08T05:23:39.088Z,73.28
2018-02-08T05:24:05.181Z,73.75
2018-02-08T05:24:31.289Z,73.56
2018-02-08T05:24:57.414Z,73.66
2018-02-08T05:25:23.508Z,74.04
2018-02-08T05:25:49.611Z,74.22
2018-02-08T05:26:15.701Z,74.22
2018-02-08T05:26:41.804Z,73.56
2018-02-08T05:27:07.899Z,74.13
2018-02-08T05:27:33.998Z,74.04
2018-02-08T05:28:00.100Z,73.66
2018-02-08T05:28:26.205Z,73.75
2018-02-08T05:28:52.299Z,74.13
2018-02-08T05:29:18.400Z,73.28
2018-02-08T05:29:44.495Z,73.85
2018-02-08T05:30:10.602Z,73.09
2018-02-08T05:30:36.704Z,73.28
2018-02-08T05:31:02.798Z,73.37
2018-02-08T05:31:28.898Z,73.56
2018-02-08T05:31:54.997Z,72.99
2018-02-08T05:32:21.099Z,72.9
2018-02-08T05:32:47.201Z,72.99
2018-02-08T05:33:13.296Z,73.09
2018-02-08T05:33:39.399Z,72.99
2018-02-08T05:34:05.496Z,73.47
2018-02-08T05:34:31.588Z,73.47
2018-02-08T05:34:57.705Z,73.66
2018-02-08T05:35:23.827Z,73.47
2018-02-08T05:35:49.929Z,73.28
2018-02-08T05:36:16.051Z,73.09
2018-02-08T05:36:42.141Z,73.18
2018-02-08T05:37:08.246Z,72.33
2018-02-08T05:37:34.361Z,72.43